Time;durP1;ratioP1;P1;durP2;ratioP2;P2;SDS_P1;SDS_P2;PMS_P1;PMS_P2;Temp;Humidity;BMP_temperature;BMP_pressure;BME280_temperature;BME280_humidity;BME280_pressure;Samples;Min_cycle;Max_cycle;Signal;HPM_P1;HPM_P2
2022/01/03 00:00:30;;;;;;;5.97;2.78;;;;;;;13.60;54.83;98568.38;4953052;28;20113;-58
2022/01/03 00:02:58;;;;;;;3.55;3.17;;;;;;;13.60;54.37;98562.38;4954057;28;20580;-59
2022/01/03 00:05:25;;;;;;;4.45;2.00;;;;;;;13.57;54.03;98545.28;4952242;28;20375;-55
2022/01/03 00:07:50;;;;;;;2.40;2.10;;;;;;;13.60;54.09;98544.34;4943536;28;20046;-57
2022/01/03 00:10:18;;;;;;;2.50;2.30;;;;;;;13.55;53.53;98529.03;4961207;28;20121;-61
2022/01/03 00:12:45;;;;;;;2.83;2.58;;;;;;;13.44;53.90;98531.13;4956005;28;20039;-56
2022/01/03 00:15:14;;;;;;;3.20;2.42;;;;;;;13.38;53.87;98520.16;4958478;28;20054;-58
2022/01/03 00:17:41;;;;;;;4.07;2.00;;;;;;;13.25;54.61;98523.13;4961200;28;20493;-55
2022/01/03 00:20:08;;;;;;;3.00;2.40;;;;;;;13.18;54.75;98513.06;4958593;28;20038;-58
2022/01/03 00:22:49;;;;;;;5.32;2.80;;;;;;;13.25;54.32;98519.69;4957820;28;20026;-57
2022/01/03 00:25:20;;;;;;;2.35;2.15;;;;;;;13.15;55.23;98502.88;4960019;28;20118;-57
2022/01/03 00:27:57;;;;;;;4.57;2.28;;;;;;;12.98;55.27;98515.38;4970101;28;20038;-57
2022/01/03 00:30:25;;;;;;;2.85;1.70;;;;;;;12.78;56.44;98514.25;4956626;28;20038;-58
2022/01/03 00:32:51;;;;;;;2.88;2.25;;;;;;;12.75;56.98;98521.22;4955663;28;20031;-59
2022/01/03 00:35:18;;;;;;;3.58;2.17;;;;;;;12.68;56.67;98515.41;4963026;28;20488;-58
2022/01/03 00:37:45;;;;;;;3.67;2.63;;;;;;;12.66;56.78;98519.75;4961570;28;20030;-58
2022/01/03 00:40:18;;;;;;;2.17;1.83;;;;;;;12.57;57.29;98507.16;4957849;28;20035;-58
2022/01/03 00:42:44;;;;;;;4.80;2.15;;;;;;;12.40;58.31;98529.94;4958791;28;20462;-58
2022/01/03 00:45:10;;;;;;;2.45;2.25;;;;;;;12.27;59.39;98537.13;4962384;28;20042;-56
2022/01/03 00:47:36;;;;;;;3.97;2.00;;;;;;;12.07;60.74;98530.84;4956667;28;20062;-55
2022/01/03 00:50:11;;;;;;;2.33;2.05;;;;;;;11.93;61.80;98532.94;4958108;28;20497;-57
2022/01/03 00:52:36;;;;;;;2.00;1.80;;;;;;;11.89;61.57;98522.75;4960271;28;20066;-57
2022/01/03 00:55:04;;;;;;;2.72;2.53;;;;;;;11.88;61.65;98531.31;4960031;28;20062;-57
2022/01/03 00:57:43;;;;;;;4.57;2.10;;;;;;;11.70;62.98;98528.38;4958111;28;20046;-59
2022/01/03 01:00:10;;;;;;;3.65;2.35;;;;;;;11.38;66.41;98547.09;4955061;28;20022;-56
2022/01/03 01:02:37;;;;;;;2.28;2.08;;;;;;;11.23;67.47;98537.22;4959876;28;20030;-57
2022/01/03 01:05:05;;;;;;;3.75;2.33;;;;;;;11.05;70.37;98527.34;4960216;28;20035;-57
2022/01/03 01:07:31;;;;;;;4.03;2.80;;;;;;;10.71;74.99;98537.50;4954454;28;20154;-58
2022/01/03 01:10:00;;;;;;;2.53;1.83;;;;;;;10.94;70.75;98536.16;4953404;28;20476;-57
2022/01/03 01:12:27;;;;;;;5.22;2.00;;;;;;;10.92;71.31;98527.63;4957927;28;20118;-58
2022/01/03 01:14:53;;;;;;;3.78;2.35;;;;;;;10.86;71.41;98532.88;4957515;28;20058;-56
2022/01/03 01:17:19;;;;;;;3.50;2.47;;;;;;;10.84;71.76;98532.09;4960028;28;20131;-58
2022/01/03 01:19:45;;;;;;;2.65;1.98;;;;;;;10.91;70.62;98517.41;4954370;28;20126;-58
2022/01/03 01:22:10;;;;;;;2.75;2.55;;;;;;;10.98;70.04;98514.69;4960081;28;20384;-57
2022/01/03 01:24:47;;;;;;;4.63;1.90;;;;;;;10.93;70.22;98501.13;4959129;28;20026;-57
2022/01/03 01:29:56;;;;;;;2.78;1.92;;;;;;;11.27;67.89;98526.84;4958594;28;20531;-58
2022/01/03 01:32:23;;;;;;;2.33;2.13;;;;;;;11.44;66.48;98508.47;4959576;28;20035;-55
2022/01/03 01:34:52;;;;;;;2.78;2.00;;;;;;;11.55;66.20;98531.28;4956524;28;20540;-57
2022/01/03 01:37:22;;;;;;;2.58;1.73;;;;;;;11.55;65.91;98501.34;4955567;28;20623;-54
2022/01/03 01:39:49;;;;;;;4.38;2.42;;;;;;;11.56;65.62;98504.75;4957141;28;20362;-58
2022/01/03 01:42:17;;;;;;;2.28;1.85;;;;;;;11.37;66.75;98514.63;4960421;28;20105;-58
2022/01/03 01:44:48;;;;;;;4.88;3.95;;;;;;;11.26;68.61;98504.63;4953631;28;20122;-58
2022/01/03 01:47:15;;;;;;;3.88;2.08;;;;;;;11.74;64.64;98496.63;4954847;28;20404;-56
2022/01/03 01:49:45;;;;;;;2.28;2.05;;;;;;;11.83;63.38;98499.81;4960030;28;20541;-55
2022/01/03 01:52:17;;;;;;;3.15;2.10;;;;;;;11.88;63.47;98494.53;4957347;28;20027;-58
2022/01/03 01:54:53;;;;;;;1.50;1.40;;;;;;;11.68;64.95;98496.72;4960132;28;20385;-58
2022/01/03 01:57:20;;;;;;;2.65;2.08;;;;;;;11.64;65.64;98495.13;4955231;28;20027;-56
2022/01/03 02:00:01;;;;;;;3.65;2.00;;;;;;;11.78;63.85;98511.91;4959788;28;20382;-59
2022/01/03 02:02:45;;;;;;;4.97;3.33;;;;;;;12.26;60.90;98503.78;4959442;28;20023;-57
2022/01/03 02:05:29;;;;;;;3.67;1.70;;;;;;;12.69;56.80;98467.38;4956095;28;20035;-59
2022/01/03 02:08:01;;;;;;;1.65;1.55;;;;;;;13.18;54.05;98477.88;4956338;28;20102;-58
2022/01/03 02:10:55;;;;;;;2.05;1.88;;;;;;;13.40;52.65;98452.28;4958717;28;20081;-58
2022/01/03 02:13:23;;;;;;;2.45;1.63;;;;;;;13.75;51.10;98463.13;4879019;29;20049;-56
2022/01/03 02:15:57;;;;;;;1.63;1.52;;;;;;;13.72;50.77;98454.59;4875716;29;20146;-56
2022/01/03 02:18:24;;;;;;;1.67;1.58;;;;;;;13.70;50.71;98460.72;4865394;29;20040;-57
2022/01/03 02:20:50;;;;;;;2.40;2.17;;;;;;;13.61;51.68;98464.44;4880660;29;20080;-54
2022/01/03 02:23:15;;;;;;;1.85;1.40;;;;;;;13.35;52.55;98440.44;4880397;29;20158;-57
2022/01/03 02:25:41;;;;;;;2.58;2.38;;;;;;;13.16;52.92;98446.19;4876529;29;20470;-57
2022/01/03 02:28:06;;;;;;;2.00;1.85;;;;;;;13.13;53.08;98448.00;4878262;29;20129;-57
2022/01/03 02:30:33;;;;;;;2.03;1.90;;;;;;;13.16;52.95;98435.88;4885654;29;20064;-57
2022/01/03 02:32:59;;;;;;;3.65;1.83;;;;;;;13.33;51.79;98449.94;4877110;29;20041;-58
2022/01/03 02:35:25;;;;;;;2.30;1.73;;;;;;;14.02;49.06;98441.53;4876821;29;20203;-57
2022/01/03 02:37:51;;;;;;;2.50;1.55;;;;;;;14.18;48.85;98437.50;4882359;29;20049;-57
2022/01/03 02:40:19;;;;;;;1.42;1.33;;;;;;;14.09;48.91;98432.66;4885168;29;20548;-58
2022/01/03 02:42:46;;;;;;;1.60;1.50;;;;;;;14.05;48.75;98434.53;4876713;29;20052;-55
2022/01/03 02:45:20;;;;;;;1.80;1.50;;;;;;;14.18;48.92;98440.91;4880872;29;20033;-57
2022/01/03 02:47:55;;;;;;;2.17;1.33;;;;;;;14.27;48.65;98442.31;4881235;29;20048;-57
2022/01/03 02:50:22;;;;;;;2.28;1.55;;;;;;;14.50;47.42;98426.88;4928746;28;20039;-56
2022/01/03 02:52:49;;;;;;;1.95;1.48;;;;;;;14.46;47.92;98406.41;4952915;28;20043;-57
2022/01/03 02:55:16;;;;;;;2.50;1.75;;;;;;;14.51;46.88;98413.06;4958467;28;20031;-58
2022/01/03 02:57:50;;;;;;;1.80;1.70;;;;;;;14.56;47.40;98418.88;4957586;28;20126;-54
2022/01/03 03:00:29;;;;;;;2.08;1.40;;;;;;;14.55;47.55;98435.25;4956074;28;20035;-58
2022/01/03 03:02:55;;;;;;;1.45;1.35;;;;;;;14.76;46.05;98420.72;4953470;28;20034;-55
2022/01/03 03:05:20;;;;;;;1.33;1.23;;;;;;;14.72;46.59;98411.41;4958114;28;20537;-56
2022/01/03 03:07:46;;;;;;;1.95;1.85;;;;;;;14.75;46.69;98423.34;4956610;28;20105;-58
2022/01/03 03:10:17;;;;;;;2.53;1.75;;;;;;;14.71;46.57;98419.19;4954236;28;20027;-58
2022/01/03 03:12:44;;;;;;;1.85;1.75;;;;;;;14.58;47.08;98419.69;4952271;28;20146;-58
2022/01/03 03:15:13;;;;;;;1.60;1.45;;;;;;;14.63;46.23;98417.75;4959392;28;20409;-55
2022/01/03 03:17:40;;;;;;;1.60;1.50;;;;;;;14.60;46.64;98417.00;4961767;28;20803;-56
2022/01/03 03:20:09;;;;;;;1.35;1.27;;;;;;;14.57;46.51;98430.03;4954793;28;20474;-58
2022/01/03 03:22:35;;;;;;;1.92;1.77;;;;;;;14.45;47.22;98412.47;4955725;28;20039;-56
2022/01/03 03:25:05;;;;;;;1.55;1.42;;;;;;;14.46;46.95;98421.88;4955959;28;20031;-56
2022/01/03 03:27:31;;;;;;;1.42;1.40;;;;;;;14.34;47.70;98443.75;4938725;28;20556;-56
2022/01/03 03:29:57;;;;;;;1.60;1.50;;;;;;;14.30;48.05;98426.72;4956116;28;20039;-57
2022/01/03 03:32:25;;;;;;;1.70;1.60;;;;;;;14.11;48.56;98421.41;4956225;28;20519;-57
2022/01/03 03:34:50;;;;;;;1.67;1.42;;;;;;;14.34;47.87;98423.13;4954910;28;20031;-58
2022/01/03 03:37:17;;;;;;;3.05;1.42;;;;;;;14.12;49.82;98427.41;4955393;28;20527;-59
2022/01/03 03:39:43;;;;;;;1.58;1.48;;;;;;;14.14;48.95;98428.19;4959443;28;20125;-58
2022/01/03 03:42:10;;;;;;;2.20;2.10;;;;;;;14.13;49.35;98435.06;4957149;28;20019;-58
2022/01/03 03:44:36;;;;;;;1.77;1.67;;;;;;;13.99;49.80;98426.19;4953491;28;20043;-56
2022/01/03 03:47:03;;;;;;;1.50;1.40;;;;;;;13.82;50.45;98413.91;4951200;28;20126;-58
2022/01/03 03:49:28;;;;;;;2.25;1.83;;;;;;;13.93;50.75;98428.97;4956257;28;20334;-58
2022/01/03 03:51:54;;;;;;;2.10;1.90;;;;;;;14.03;49.95;98440.63;4956643;28;20316;-58
2022/01/03 03:54:20;;;;;;;1.80;1.40;;;;;;;14.35;48.24;98417.13;4952929;28;20062;-56
2022/01/03 03:56:45;;;;;;;1.55;1.40;;;;;;;14.26;50.18;98406.28;4952036;28;20023;-57
2022/01/03 03:59:10;;;;;;;2.10;1.98;;;;;;;13.97;50.63;98415.06;4955375;28;20393;-56
2022/01/03 04:01:36;;;;;;;3.28;1.45;;;;;;;13.95;50.65;98414.31;4956881;28;20031;-56
2022/01/03 04:04:02;;;;;;;1.95;1.67;;;;;;;13.93;50.84;98422.06;4952898;28;20039;-57
2022/01/03 04:06:27;;;;;;;2.33;1.35;;;;;;;13.96;51.00;98434.03;4941605;28;20039;-56
2022/01/03 04:08:53;;;;;;;1.48;1.38;;;;;;;13.92;50.51;98435.03;4955377;28;20031;-56
2022/01/03 04:11:20;;;;;;;2.88;1.30;;;;;;;13.94;51.09;98443.53;4954106;28;20039;-58
2022/01/03 04:13:45;;;;;;;2.72;1.38;;;;;;;13.90;51.25;98447.97;4954651;28;20027;-58
2022/01/03 04:16:13;;;;;;;1.58;1.45;;;;;;;13.86;50.97;98443.81;4953140;28;20051;-58
2022/01/03 04:18:39;;;;;;;2.85;1.38;;;;;;;13.90;51.39;98449.69;4953922;28;20436;-55
2022/01/03 04:21:05;;;;;;;1.90;1.20;;;;;;;13.85;51.94;98436.97;4954561;28;20038;-58
2022/01/03 04:23:30;;;;;;;1.55;1.45;;;;;;;13.81;52.39;98444.88;4952279;28;20123;-59
2022/01/03 04:25:55;;;;;;;2.55;1.50;;;;;;;13.73;52.84;98443.41;4951636;28;20420;-58
2022/01/03 04:28:21;;;;;;;5.38;1.55;;;;;;;13.75;52.64;98437.38;4956035;28;20092;-56
2022/01/03 04:30:47;;;;;;;2.03;1.70;;;;;;;13.93;52.27;98449.56;4953309;28;20078;-56
2022/01/03 04:33:12;;;;;;;2.53;1.33;;;;;;;13.90;51.96;98436.81;4950582;28;20030;-55
2022/01/03 04:35:38;;;;;;;1.83;1.63;;;;;;;14.02;52.20;98455.25;4951317;28;20035;-57
2022/01/03 04:38:04;;;;;;;2.42;1.42;;;;;;;13.91;52.42;98436.78;4954988;28;20026;-56
2022/01/03 04:40:30;;;;;;;2.05;1.95;;;;;;;13.93;52.48;98447.84;4952680;28;20031;-53
2022/01/03 04:42:56;;;;;;;1.90;1.63;;;;;;;13.89;52.64;98437.69;4950632;28;20486;-55
2022/01/03 04:45:21;;;;;;;1.55;1.45;;;;;;;13.84;52.84;98437.84;4958397;28;20098;-55
2022/01/03 04:47:47;;;;;;;2.42;1.40;;;;;;;13.77;53.05;98445.88;4954754;28;20390;-55
2022/01/03 04:50:13;;;;;;;1.75;1.13;;;;;;;13.76;52.33;98447.59;4951561;28;20039;-56
2022/01/03 04:52:39;;;;;;;1.95;1.30;;;;;;;13.76;52.79;98452.75;4951842;28;20027;-55
2022/01/03 04:55:05;;;;;;;3.30;1.38;;;;;;;13.62;53.70;98462.72;4953598;28;20535;-55
2022/01/03 04:57:31;;;;;;;1.35;1.25;;;;;;;13.60;52.63;98449.88;4955287;28;20126;-56
2022/01/03 04:59:56;;;;;;;2.05;1.38;;;;;;;13.70;52.02;98456.41;4952118;28;20035;-55
2022/01/03 05:02:22;;;;;;;3.80;2.35;;;;;;;13.75;51.05;98437.38;4952580;28;20035;-56
2022/01/03 05:04:47;;;;;;;1.63;1.40;;;;;;;13.78;50.66;98445.81;4952905;28;20027;-57
2022/01/03 05:07:13;;;;;;;2.00;1.45;;;;;;;13.82;50.99;98439.66;4959952;28;20102;-56
2022/01/03 05:09:38;;;;;;;1.08;1.05;;;;;;;13.73;50.46;98435.69;4952975;28;20029;-57
2022/01/03 05:12:04;;;;;;;2.63;1.33;;;;;;;13.70;50.82;98435.78;4950001;28;20045;-56
2022/01/03 05:14:30;;;;;;;1.92;1.45;;;;;;;13.62;51.31;98445.50;4955030;28;20319;-57
2022/01/03 05:16:57;;;;;;;1.95;1.15;;;;;;;13.53;52.20;98432.94;4955973;28;20540;-56
2022/01/03 05:19:24;;;;;;;3.03;1.80;;;;;;;13.37;52.50;98460.09;4951073;28;20418;-57
2022/01/03 05:21:50;;;;;;;3.15;1.30;;;;;;;13.44;51.28;98464.16;4949120;28;20026;-56
2022/01/03 05:24:16;;;;;;;3.63;1.95;;;;;;;13.37;51.17;98434.34;4953195;28;20117;-55
2022/01/03 05:26:42;;;;;;;1.83;1.38;;;;;;;13.46;51.86;98462.34;4955638;28;20062;-57
2022/01/03 05:29:08;;;;;;;1.85;1.30;;;;;;;13.55;51.50;98445.75;4949117;28;20544;-56
2022/01/03 05:31:33;;;;;;;2.85;1.33;;;;;;;13.53;51.42;98450.97;4951657;28;20115;-56
2022/01/03 05:34:00;;;;;;;1.58;1.40;;;;;;;13.56;51.20;98471.47;4954295;28;20032;-57
2022/01/03 05:36:26;;;;;;;3.70;1.38;;;;;;;13.52;51.33;98459.59;4955237;28;20713;-57
2022/01/03 05:38:52;;;;;;;5.03;1.33;;;;;;;13.54;51.16;98465.50;4950839;28;20146;-55
2022/01/03 05:41:17;;;;;;;1.60;1.10;;;;;;;13.47;51.79;98461.47;4950563;28;20466;-56
2022/01/03 05:43:43;;;;;;;7.85;1.60;;;;;;;13.38;52.37;98461.78;4958648;28;20075;-56
2022/01/03 05:46:08;;;;;;;1.40;1.30;;;;;;;13.37;52.00;98485.84;4953879;28;20058;-54
2022/01/03 05:48:34;;;;;;;2.97;1.13;;;;;;;13.48;52.04;98472.63;4947028;28;20023;-55
2022/01/03 05:50:59;;;;;;;0.98;0.98;;;;;;;13.47;51.41;98469.19;4953704;28;20509;-55
2022/01/03 05:53:25;;;;;;;4.78;1.67;;;;;;;13.42;51.58;98463.34;4955207;28;20121;-56
2022/01/03 05:55:50;;;;;;;2.50;1.50;;;;;;;13.45;51.47;98460.66;4956941;28;20084;-57
2022/01/03 05:58:16;;;;;;;1.73;1.20;;;;;;;13.32;52.26;98461.16;4951296;28;20034;-54
2022/01/03 06:00:42;;;;;;;2.25;1.90;;;;;;;13.40;51.66;98470.31;4951374;28;20046;-57
2022/01/03 06:03:07;;;;;;;1.40;1.30;;;;;;;13.36;52.23;98466.16;4951100;28;20137;-56
2022/01/03 06:05:42;;;;;;;2.28;1.10;;;;;;;13.31;51.77;98472.31;4955520;28;20038;-55
2022/01/03 06:08:08;;;;;;;1.45;1.30;;;;;;;13.39;51.50;98450.59;4958874;28;20039;-54
2022/01/03 06:10:39;;;;;;;1.88;1.13;;;;;;;13.50;50.87;98475.97;4951830;28;20410;-52
2022/01/03 06:13:04;;;;;;;1.88;1.45;;;;;;;13.48;50.69;98454.59;4948043;28;20401;-57
2022/01/03 06:15:30;;;;;;;3.70;1.23;;;;;;;13.42;50.95;98476.22;4949643;28;20047;-56
2022/01/03 06:17:55;;;;;;;2.47;1.35;;;;;;;13.51;49.79;98473.34;4953354;28;20031;-57
2022/01/03 06:20:21;;;;;;;3.40;1.50;;;;;;;13.38;50.59;98446.31;4949979;28;20042;-57
2022/01/03 06:22:46;;;;;;;3.35;1.38;;;;;;;13.32;50.96;98459.41;4949619;28;20030;-57
2022/01/03 06:25:12;;;;;;;1.50;1.38;;;;;;;13.25;50.86;98475.94;4951252;28;20469;-57
2022/01/03 06:27:38;;;;;;;2.65;1.20;;;;;;;13.27;51.27;98459.56;4953597;28;20070;-56
2022/01/03 06:30:05;;;;;;;2.63;1.20;;;;;;;13.27;51.76;98479.31;4950922;28;20062;-56
2022/01/03 06:32:31;;;;;;;2.55;1.20;;;;;;;13.32;51.30;98480.00;4950109;28;20035;-55
2022/01/03 06:34:56;;;;;;;2.30;1.30;;;;;;;13.35;51.24;98477.31;4951364;28;20034;-55
2022/01/03 06:37:22;;;;;;;4.32;1.45;;;;;;;13.33;51.72;98499.69;4952043;28;20134;-53
2022/01/03 06:39:47;;;;;;;4.50;1.45;;;;;;;13.32;52.49;98503.19;4952639;28;20037;-53
2022/01/03 06:42:13;;;;;;;1.40;1.30;;;;;;;13.23;52.65;98491.44;4948674;28;20045;-55
2022/01/03 06:44:38;;;;;;;2.45;1.80;;;;;;;13.17;52.71;98478.75;4952525;28;20027;-56
2022/01/03 06:47:04;;;;;;;2.03;1.27;;;;;;;13.23;53.01;98470.00;4954198;28;20043;-56
2022/01/03 06:49:29;;;;;;;4.03;1.27;;;;;;;13.16;53.23;98494.25;4951023;28;20392;-56
2022/01/03 06:51:54;;;;;;;3.15;1.30;;;;;;;13.27;52.71;98500.75;4948303;28;20430;-54
2022/01/03 06:54:20;;;;;;;3.30;1.35;;;;;;;13.33;52.43;98517.72;4956671;28;20033;-55
2022/01/03 06:56:45;;;;;;;4.82;1.65;;;;;;;13.28;53.04;98519.63;4954440;28;20034;-54
2022/01/03 06:59:11;;;;;;;1.88;1.15;;;;;;;13.22;53.93;98489.75;4949315;28;20031;-55
2022/01/03 07:01:37;;;;;;;2.42;1.10;;;;;;;13.20;52.86;98506.97;4948194;28;20031;-54
2022/01/03 07:04:03;;;;;;;2.58;1.13;;;;;;;13.31;51.98;98513.53;4958166;28;20030;-54
2022/01/03 07:06:28;;;;;;;1.95;1.05;;;;;;;13.24;52.39;98543.75;4954886;28;20561;-56
2022/01/03 07:08:54;;;;;;;4.72;1.75;;;;;;;13.31;52.32;98498.91;4948623;28;20417;-56
2022/01/03 07:11:19;;;;;;;5.88;1.88;;;;;;;13.22;52.88;98512.09;4948596;28;20039;-56
2022/01/03 07:13:49;;;;;;;4.05;1.35;;;;;;;13.23;52.93;98524.06;4954092;28;20031;-57
2022/01/03 07:19:00;;;;;;;4.32;1.27;;;;;;;13.20;52.83;98509.53;4949764;28;20042;-56
2022/01/03 07:21:28;;;;;;;2.38;1.10;;;;;;;13.30;51.92;98517.81;4958187;28;20113;-57
2022/01/03 07:23:54;;;;;;;1.35;1.25;;;;;;;13.28;52.09;98538.47;4951399;28;20117;-59
2022/01/03 07:26:20;;;;;;;2.78;1.25;;;;;;;13.00;53.82;98513.59;4952342;28;20042;-58
2022/01/03 07:28:45;;;;;;;3.17;1.10;;;;;;;13.08;53.79;98525.34;4951090;28;20034;-59
2022/01/03 07:31:11;;;;;;;1.63;1.50;;;;;;;12.91;55.46;98537.03;4955617;28;20031;-60
2022/01/03 07:33:36;;;;;;;2.10;1.50;;;;;;;12.76;56.74;98539.19;4951878;28;20042;-59
2022/01/03 07:36:02;;;;;;;4.53;1.75;;;;;;;12.82;56.54;98540.72;4953908;28;20050;-59
2022/01/03 07:38:28;;;;;;;4.95;1.48;;;;;;;12.74;56.76;98551.25;4948490;28;20042;-59
2022/01/03 07:40:53;;;;;;;1.27;1.17;;;;;;;12.89;56.29;98551.69;4954858;28;20158;-58
2022/01/03 07:43:19;;;;;;;5.63;1.77;;;;;;;12.99;56.20;98556.50;4951605;28;20596;-58
2022/01/03 07:45:44;;;;;;;1.65;1.25;;;;;;;12.97;57.06;98532.56;4947272;28;20358;-60
2022/01/03 07:48:10;;;;;;;2.58;1.30;;;;;;;12.97;58.32;98519.69;4946589;28;20078;-59
2022/01/03 07:50:35;;;;;;;3.63;1.58;;;;;;;12.92;58.24;98511.25;4952020;28;20031;-59
2022/01/03 07:53:01;;;;;;;2.45;1.15;;;;;;;12.94;58.66;98519.78;4949672;28;20469;-58
2022/01/03 07:55:27;;;;;;;2.63;1.38;;;;;;;12.84;60.44;98515.78;4948774;28;20098;-58
2022/01/03 07:57:54;;;;;;;2.70;1.30;;;;;;;12.80;60.38;98527.06;4951364;28;20015;-58
2022/01/03 08:00:20;;;;;;;2.30;1.60;;;;;;;12.86;60.01;98520.91;4949990;28;20043;-59
2022/01/03 08:02:46;;;;;;;2.55;1.10;;;;;;;12.83;60.98;98527.81;4949585;28;20042;-59
2022/01/03 08:05:14;;;;;;;1.20;0.90;;;;;;;12.83;61.42;98534.69;4951086;28;20113;-58
2022/01/03 08:07:41;;;;;;;3.30;1.00;;;;;;;12.77;62.75;98546.00;4949133;28;20441;-58
2022/01/03 08:10:08;;;;;;;1.85;1.00;;;;;;;12.66;64.42;98537.75;4952225;28;20062;-56
2022/01/03 08:12:34;;;;;;;1.58;1.08;;;;;;;12.65;64.28;98530.91;4950699;28;20196;-58
2022/01/03 08:15:00;;;;;;;1.30;1.20;;;;;;;12.58;65.88;98529.41;4951166;28;20047;-58
2022/01/03 08:17:26;;;;;;;3.10;1.40;;;;;;;12.51;66.37;98509.06;4951438;28;20031;-56
2022/01/03 08:19:53;;;;;;;4.65;1.77;;;;;;;12.41;68.29;98513.63;4954031;28;20438;-57
2022/01/03 08:22:18;;;;;;;1.20;0.95;;;;;;;12.40;68.18;98523.94;4954176;28;20039;-57
2022/01/03 08:24:44;;;;;;;1.67;1.15;;;;;;;12.44;68.57;98528.09;4953850;28;20409;-57
2022/01/03 08:27:10;;;;;;;2.05;1.95;;;;;;;12.33;71.05;98531.00;4950880;28;20035;-58
2022/01/03 08:29:35;;;;;;;1.50;1.40;;;;;;;12.16;73.12;98562.31;4955019;28;20037;-56
2022/01/03 08:32:01;;;;;;;2.83;1.17;;;;;;;12.20;73.86;98525.34;4955946;28;20071;-58
2022/01/03 08:34:26;;;;;;;5.03;1.65;;;;;;;12.17;75.48;98546.00;4954555;28;20027;-57
2022/01/03 08:36:52;;;;;;;2.55;1.42;;;;;;;12.14;76.53;98532.38;4956116;28;20390;-57
2022/01/03 08:39:17;;;;;;;3.40;1.40;;;;;;;12.06;79.05;98539.44;4955280;28;20047;-57
2022/01/03 08:41:43;;;;;;;1.35;1.10;;;;;;;12.04;79.68;98529.22;4952418;28;20035;-58
2022/01/03 08:44:08;;;;;;;2.35;1.77;;;;;;;12.03;79.51;98537.81;4952342;28;20470;-58
2022/01/03 08:46:34;;;;;;;1.55;1.10;;;;;;;12.04;80.68;98544.63;4952248;28;20039;-58
2022/01/03 08:49:00;;;;;;;2.13;1.90;;;;;;;12.03;81.69;98554.94;4954749;28;20031;-58
2022/01/03 08:51:25;;;;;;;1.02;1.02;;;;;;;12.00;83.04;98555.03;4953245;28;20587;-56
2022/01/03 08:53:51;;;;;;;3.75;1.90;;;;;;;12.00;83.84;98555.88;4952477;28;20093;-57
2022/01/03 08:56:17;;;;;;;2.45;1.20;;;;;;;12.00;85.20;98555.88;4954041;28;20062;-57
2022/01/03 08:58:43;;;;;;;1.52;1.40;;;;;;;11.88;87.56;98561.34;4954754;28;20122;-57
2022/01/03 09:01:09;;;;;;;1.90;1.30;;;;;;;11.87;87.13;98547.66;4947054;28;20237;-58
2022/01/03 09:03:34;;;;;;;3.17;1.48;;;;;;;11.78;88.22;98567.56;4953451;28;20389;-62
2022/01/03 09:06:01;;;;;;;1.63;1.27;;;;;;;11.73;88.43;98566.84;4952744;28;20042;-58
2022/01/03 09:08:26;;;;;;;1.88;1.55;;;;;;;11.82;86.19;98580.31;4955439;28;20122;-55
2022/01/03 09:10:53;;;;;;;3.63;1.77;;;;;;;11.83;85.95;98576.88;4955661;28;20518;-57
2022/01/03 09:13:19;;;;;;;1.60;1.50;;;;;;;11.88;86.10;98575.00;4950194;28;20046;-58
2022/01/03 09:15:46;;;;;;;1.67;1.20;;;;;;;11.89;86.23;98561.28;4954734;28;20066;-56
2022/01/03 09:18:26;;;;;;;3.33;1.42;;;;;;;11.83;85.60;98568.31;4961680;28;20049;-57
2022/01/03 09:20:52;;;;;;;1.80;1.45;;;;;;;11.74;85.30;98564.25;4954556;28;20109;-57
2022/01/03 09:23:19;;;;;;;1.52;1.30;;;;;;;11.79;85.58;98569.25;4949707;28;20478;-58
2022/01/03 09:31:14;;;;;;;2.65;1.40;;;;;;;11.77;85.61;98579.56;4955666;28;20432;-56
2022/01/03 09:33:40;;;;;;;2.85;1.60;;;;;;;11.83;86.11;98555.47;4951225;28;20050;-56
2022/01/03 09:36:05;;;;;;;1.70;1.35;;;;;;;11.91;84.59;98581.81;4953383;28;20509;-56
2022/01/03 09:38:31;;;;;;;2.60;1.40;;;;;;;12.06;85.23;98570.28;4958110;28;20030;-55
2022/01/03 09:41:00;;;;;;;1.60;1.48;;;;;;;12.04;83.90;98560.06;4952786;28;20023;-57
2022/01/03 09:43:28;;;;;;;2.42;1.27;;;;;;;11.99;84.34;98545.63;4951534;28;20033;-55
2022/01/03 09:45:55;;;;;;;3.53;1.40;;;;;;;11.99;84.34;98553.34;4958945;28;20049;-57
2022/01/03 09:48:22;;;;;;;2.05;1.02;;;;;;;12.03;83.10;98550.66;4954272;28;20042;-55
2022/01/03 09:50:49;;;;;;;2.45;1.10;;;;;;;12.03;82.70;98547.22;4952548;28;20027;-57
2022/01/03 09:53:18;;;;;;;3.60;1.60;;;;;;;12.12;82.41;98565.00;4954320;28;20341;-54
2022/01/03 09:55:44;;;;;;;1.90;1.10;;;;;;;12.12;82.51;98537.56;4952939;28;20478;-56
2022/01/03 09:58:13;;;;;;;1.52;1.40;;;;;;;12.21;80.66;98539.91;4952904;28;20046;-55
2022/01/03 10:00:39;;;;;;;1.38;1.27;;;;;;;12.25;80.71;98530.38;4935463;28;20097;-56
2022/01/03 10:03:05;;;;;;;2.13;1.45;;;;;;;12.29;79.27;98529.41;4951046;28;20039;-56
2022/01/03 10:05:30;;;;;;;3.75;1.50;;;;;;;12.36;80.96;98525.75;4955522;28;20042;-55
2022/01/03 10:07:56;;;;;;;2.58;1.40;;;;;;;12.34;79.53;98548.13;4950402;28;20050;-55
2022/01/03 10:10:22;;;;;;;1.88;1.23;;;;;;;12.29;80.45;98552.53;4949459;28;20033;-55
2022/01/03 10:12:47;;;;;;;4.25;1.40;;;;;;;12.30;80.85;98531.94;4951683;28;20495;-54
2022/01/03 10:15:13;;;;;;;2.85;1.45;;;;;;;12.20;81.02;98547.63;4952645;28;20039;-58
2022/01/03 10:17:41;;;;;;;3.13;1.27;;;;;;;12.19;81.08;98543.38;4950622;28;20039;-57
2022/01/03 10:20:12;;;;;;;2.63;1.70;;;;;;;12.24;79.58;98529.53;4948637;28;20039;-56
2022/01/03 10:22:41;;;;;;;1.50;1.20;;;;;;;12.22;79.45;98531.28;4943720;28;20031;-58
2022/01/03 10:25:20;;;;;;;3.25;1.27;;;;;;;12.28;80.56;98538.84;4953227;28;20643;-57
2022/01/03 10:27:57;;;;;;;2.22;1.27;;;;;;;12.24;81.83;98536.38;4948771;28;20034;-57
2022/01/03 10:30:32;;;;;;;1.40;1.30;;;;;;;12.28;81.32;98527.69;4951151;28;20661;-59
2022/01/03 10:32:58;;;;;;;3.90;1.58;;;;;;;12.34;81.05;98532.69;4952552;28;20039;-57
2022/01/03 10:35:24;;;;;;;3.67;1.20;;;;;;;12.27;79.19;98520.88;4950645;28;20035;-58
2022/01/03 10:37:50;;;;;;;3.30;1.95;;;;;;;12.21;81.01;98515.91;4948070;28;20461;-58
2022/01/03 10:40:20;;;;;;;1.73;1.60;;;;;;;12.13;81.60;98535.84;4947741;28;20046;-56
2022/01/03 10:42:46;;;;;;;2.58;1.35;;;;;;;12.10;79.85;98513.63;4953188;28;20371;-55
2022/01/03 10:45:13;;;;;;;3.92;1.20;;;;;;;12.25;79.95;98505.50;4951927;28;20022;-58
2022/01/03 10:47:41;;;;;;;2.97;1.25;;;;;;;12.41;80.65;98507.63;4954585;28;20264;-57
2022/01/03 10:50:19;;;;;;;1.55;1.25;;;;;;;12.40;79.92;98500.81;4951301;28;20047;-59
2022/01/03 10:52:47;;;;;;;1.33;1.23;;;;;;;12.35;78.85;98501.78;4953735;28;20417;-56
2022/01/03 10:55:14;;;;;;;2.10;1.25;;;;;;;12.27;82.17;98500.31;4951644;28;20075;-57
2022/01/03 10:57:59;;;;;;;1.10;1.05;;;;;;;12.29;83.60;98511.41;4949624;28;20241;-58
2022/01/03 11:00:25;;;;;;;5.70;2.10;;;;;;;12.31;81.98;98510.47;4951964;28;20387;-58
2022/01/03 11:05:46;;;;;;;2.67;1.40;;;;;;;12.20;82.65;98522.78;4951165;28;20305;-58
2022/01/03 11:10:57;;;;;;;1.20;1.13;;;;;;;11.75;89.77;98524.81;4952785;28;20695;-58
2022/01/03 11:13:23;;;;;;;3.30;1.30;;;;;;;11.58;94.53;98541.50;4954266;28;20034;-58
2022/01/03 11:15:55;;;;;;;2.78;1.38;;;;;;;11.32;98.53;98535.28;4953284;28;20059;-59
2022/01/03 11:18:26;;;;;;;1.20;1.10;;;;;;;11.04;100.00;98523.09;4936483;28;20517;-58
2022/01/03 11:21:15;;;;;;;2.35;1.30;;;;;;;10.79;100.00;98515.94;4950961;28;20453;-58
2022/01/03 11:23:48;;;;;;;1.65;1.10;;;;;;;10.62;100.00;98519.75;4950479;28;20023;-58
2022/01/03 11:26:19;;;;;;;2.05;1.45;;;;;;;10.63;100.00;98521.44;4952204;28;20043;-58
2022/01/03 11:28:46;;;;;;;1.65;1.30;;;;;;;10.57;100.00;98536.94;4953868;28;20031;-59
2022/01/03 11:31:15;;;;;;;3.00;1.40;;;;;;;10.46;100.00;98526.91;4954693;28;20126;-59
2022/01/03 11:33:41;;;;;;;1.52;0.77;;;;;;;10.44;100.00;98533.78;4950599;28;20446;-59
2022/01/03 11:36:07;;;;;;;2.77;1.20;;;;;;;10.50;100.00;98529.38;4950585;28;20038;-57
2022/01/03 11:38:37;;;;;;;2.00;1.10;;;;;;;10.50;100.00;98531.94;4951796;28;20094;-56
2022/01/03 11:41:05;;;;;;;2.97;1.17;;;;;;;10.52;100.00;98509.69;4934341;28;20034;-59
2022/01/03 11:43:33;;;;;;;1.70;1.20;;;;;;;10.52;100.00;98521.69;4950848;28;20031;-58
2022/01/03 11:45:59;;;;;;;1.57;1.13;;;;;;;10.48;100.00;98527.75;4940869;28;20047;-56
2022/01/03 11:48:26;;;;;;;1.73;1.63;;;;;;;10.50;100.00;98524.25;4951227;28;20442;-59
2022/01/03 11:50:54;;;;;;;0.80;0.80;;;;;;;10.54;100.00;98551.53;4952158;28;20037;-58